Главная страница
METAR-TAF:

METAR-TAF

Аэропорты :

Doylestown Airport

Doylestown, Пенсильвания, США

широта: 40-19-48N, долгота: 075-07-21W, высота над уровнем моря: 120 м

Текущие метеонаблюдения

Эта сводка был подготовлена 23 минут назад, в 17:54 UTC
Штиль
Температура 22°C
Влажность 65%
Давление 1011 hPa
Видимость: 16.1 км
Отдельные облака на высоте 3000 фута
Рассеянная облачность на высоте 3600 фута

METAR: KDYL 121754Z AUTO 00000KT 10SM SCT030 BKN036 22/15 A2986 RMK AO2 SLP110 T02220150 10244 20178 50000 $

Время: 14:17 (18:17 UTC)


TAF: отсутствует

Метеонаблюдения и прогнозы для более 4000 аэропортов (сводки METAR и TAF).

Имеющиеся станции представлены на карте желтыми и красными точками.

Чтобы увидеть название станции, наведите на нее мышь.

Затем щелкните, чтобы увидеть метеонаблюдения и метеопрогнозы.

Управление картой: чтобы увеличить масштаб, щелкните зеленые кнопки с черным крестиком; чтобы уменьшить масштаб, щелкните зеленую кнопку с тире; для просмотра соседних карт щелкайте зеленые стрелки.


METAR-TAF: